Shideler, Indiana
Current Conditions -  °F | °C
As of 10:53 PM on Wednesday 28 Jan 2015 (Local Time) from KMIE Reporting Station
Clear Clear  
Wind Chill: 20°   Ceiling: Unl
Heat Index: 31°   Visibility: 10mi
Dew Point: 20°   Wind: 15mph
Humidity: 64%   Direction: 160°SSE
Pressure: 30.03"   Gusts: 23mph
Location:  40.3453°N, 85.3353°W
Report Text: KMIE 290353Z AUTO 16013G20KT 10SM CLR M01/M07 A3003 RMK AO2 SLP177 T10061067
Loading
Personal Weather Stations






























Interactive Weather Map New forecast layout! Learn more

10-Day Weather Forecast

Advertisements
Track Severe Weather on mobile